Terminal Aerodrome Forecast
Issued by NWS Corpus Christi, TX

Home | Current Version | Previous Version | Text Only | Print | Product List | Glossary On
Versions: 1 2 3 4 5 6 7 8 9 10 11 12 13 14 15 16 17 18 19 20
465
FTUS44 KCRP 201357 AAA
TAFVCT
TAF AMD
KVCT 201357Z 2014/2112 VRB03KT 2SM BR OVC006
      TEMPO 2014/2015 3/4SM BR
     FM201530 VRB04KT 6SM BR BKN008 OVC250
     FM201700 VRB04KT P6SM OVC011
     FM202000 13006KT P6SM VCTS OVC021CB
     FM210300 14003KT 3SM BR OVC003
     FM210800 VRB03KT 1/2SM FG VV002=

USA.gov is the U.S. government's official web portal to all federal, state and local government web resources and services.